Time;durP1;ratioP1;P1;durP2;ratioP2;P2;SDS_P1;SDS_P2;PMS_P1;PMS_P2;Temp;Humidity;BMP_temperature;BMP_pressure;BME280_temperature;BME280_humidity;BME280_pressure;Samples;Min_cycle;Max_cycle;Signal;HPM_P1;HPM_P2
2022/03/03 00:01:36;;;;;;;17.23;14.93;;;1.10;99.90;;;;;;5034052;28;20207;-66
2022/03/03 00:04:02;;;;;;;17.17;14.87;;;1.20;99.90;;;;;;5052129;28;20202;-67
2022/03/03 00:06:27;;;;;;;17.43;14.90;;;1.10;99.90;;;;;;5052346;28;20171;-66
2022/03/03 00:08:53;;;;;;;16.33;14.63;;;1.10;99.90;;;;;;5051959;28;20537;-66
2022/03/03 00:11:19;;;;;;;18.57;16.67;;;1.10;99.90;;;;;;5052614;28;20632;-66
2022/03/03 00:13:45;;;;;;;18.57;14.73;;;1.10;99.90;;;;;;5050958;28;20317;-66
2022/03/03 00:16:10;;;;;;;18.40;16.27;;;1.10;99.90;;;;;;5052236;28;20274;-67
2022/03/03 00:18:36;;;;;;;18.73;16.00;;;1.00;99.90;;;;;;5052850;28;20236;-66
2022/03/03 00:21:03;;;;;;;22.70;17.40;;;1.00;99.90;;;;;;5053406;28;20715;-66
2022/03/03 00:23:29;;;;;;;19.87;16.10;;;1.00;99.90;;;;;;5052925;28;20183;-66
2022/03/03 00:25:55;;;;;;;25.07;15.20;;;0.90;99.90;;;;;;5053232;28;20195;-66
2022/03/03 00:28:20;;;;;;;19.80;15.70;;;0.90;99.90;;;;;;5052565;28;20668;-66
2022/03/03 00:30:46;;;;;;;18.23;16.33;;;0.80;99.90;;;;;;5053038;28;20186;-67
2022/03/03 00:33:12;;;;;;;20.30;15.37;;;0.70;99.90;;;;;;5052715;28;20179;-66
2022/03/03 00:35:38;;;;;;;18.07;15.50;;;0.70;99.90;;;;;;5052849;28;20240;-67
2022/03/03 00:38:04;;;;;;;18.40;16.40;;;0.60;99.90;;;;;;5051695;28;20179;-66
2022/03/03 00:40:29;;;;;;;21.70;16.23;;;0.50;99.90;;;;;;5052966;28;20233;-66
2022/03/03 00:42:55;;;;;;;19.40;16.60;;;0.50;99.90;;;;;;5052373;28;20568;-67
2022/03/03 00:45:22;;;;;;;18.10;16.37;;;0.50;99.90;;;;;;5053234;28;20250;-66
2022/03/03 00:47:47;;;;;;;19.67;15.30;;;0.50;99.90;;;;;;5052827;28;20171;-67
2022/03/03 00:50:13;;;;;;;17.47;15.13;;;0.50;99.90;;;;;;5052818;28;20202;-66
2022/03/03 00:52:38;;;;;;;18.17;15.57;;;0.40;99.90;;;;;;5051534;28;20175;-66
2022/03/03 00:55:05;;;;;;;18.27;15.03;;;0.40;99.90;;;;;;5052910;28;20178;-66
2022/03/03 00:57:30;;;;;;;17.40;15.53;;;0.40;99.90;;;;;;5052567;28;20182;-67
2022/03/03 00:59:56;;;;;;;20.73;15.90;;;0.40;99.90;;;;;;5052861;28;20187;-66
2022/03/03 01:02:21;;;;;;;18.87;14.47;;;0.40;99.90;;;;;;5051644;28;20203;-66
2022/03/03 01:04:47;;;;;;;15.93;14.37;;;0.50;99.90;;;;;;5050948;28;20179;-67
2022/03/03 01:07:13;;;;;;;18.27;16.17;;;0.50;99.90;;;;;;5051695;28;20177;-66
2022/03/03 01:19:44;;;;;;;15.77;14.00;;;0.40;99.90;;;;;;5050503;28;20208;-66
2022/03/03 01:22:10;;;;;;;18.70;14.53;;;0.30;99.90;;;;;;5051408;28;20202;-66
2022/03/03 01:24:36;;;;;;;16.23;14.63;;;0.20;99.90;;;;;;5052007;28;20659;-66
2022/03/03 01:27:02;;;;;;;17.43;15.20;;;0.20;99.90;;;;;;5052057;28;20569;-66
2022/03/03 01:29:28;;;;;;;17.13;15.33;;;0.20;99.90;;;;;;5052270;28;20241;-66
2022/03/03 01:31:53;;;;;;;17.13;15.33;;;0.10;99.90;;;;;;5050580;28;20190;-67
2022/03/03 01:34:19;;;;;;;17.53;15.57;;;0.00;99.90;;;;;;5052100;28;20171;-66
2022/03/03 01:36:44;;;;;;;19.47;15.10;;;0.00;99.90;;;;;;5051666;28;20648;-66
2022/03/03 01:39:10;;;;;;;17.87;15.27;;;0.00;99.90;;;;;;5051568;28;20210;-67
2022/03/03 01:41:38;;;;;;;17.90;14.30;;;0.10;99.90;;;;;;5052121;28;20218;-66
2022/03/03 01:44:04;;;;;;;18.83;15.27;;;0.10;99.90;;;;;;5051294;28;20167;-67
2022/03/03 01:46:31;;;;;;;17.40;14.43;;;0.00;99.90;;;;;;5051663;28;20526;-67
2022/03/03 01:48:56;;;;;;;19.43;15.57;;;0.00;99.90;;;;;;5051356;28;20197;-67
2022/03/03 01:51:22;;;;;;;19.87;14.90;;;0.00;99.90;;;;;;5051390;28;20179;-66
2022/03/03 01:53:48;;;;;;;18.10;16.17;;;0.00;99.90;;;;;;5051215;28;20697;-66
2022/03/03 01:56:14;;;;;;;17.67;15.40;;;-0.10;99.90;;;;;;5051683;28;20652;-66
2022/03/03 01:58:40;;;;;;;18.60;15.17;;;-0.20;99.90;;;;;;5049801;28;20187;-67
2022/03/03 02:01:06;;;;;;;20.13;16.47;;;-0.20;99.90;;;;;;5050209;28;20626;-66
2022/03/03 02:03:32;;;;;;;20.23;17.83;;;-0.20;99.90;;;;;;5051166;28;20183;-66
2022/03/03 02:05:57;;;;;;;23.30;15.53;;;-0.20;99.90;;;;;;5049671;28;20853;-66
2022/03/03 02:08:24;;;;;;;17.67;15.70;;;-0.20;99.90;;;;;;5051254;28;20202;-66
2022/03/03 02:10:53;;;;;;;18.40;16.50;;;-0.20;99.90;;;;;;5051034;28;20221;-66
2022/03/03 02:13:19;;;;;;;18.07;16.03;;;-0.20;99.90;;;;;;5050014;28;20702;-66
2022/03/03 02:15:54;;;;;;;17.53;15.70;;;-0.30;99.90;;;;;;5049729;28;20182;-66
2022/03/03 02:18:20;;;;;;;22.07;15.30;;;-0.30;99.90;;;;;;5050348;28;20659;-67
2022/03/03 02:20:46;;;;;;;17.30;15.60;;;-0.30;99.90;;;;;;5051093;28;20289;-67
2022/03/03 02:23:12;;;;;;;17.93;15.93;;;-0.40;99.90;;;;;;5051472;28;20183;-67
2022/03/03 02:25:38;;;;;;;22.13;15.57;;;-0.40;99.90;;;;;;5049974;28;20282;-67
2022/03/03 02:28:04;;;;;;;17.43;15.27;;;-0.40;99.90;;;;;;5050272;28;20186;-67
2022/03/03 02:30:30;;;;;;;21.13;15.60;;;-0.40;99.90;;;;;;5051373;28;20281;-67
2022/03/03 02:32:56;;;;;;;18.53;14.90;;;-0.40;99.90;;;;;;5049514;28;20225;-67
2022/03/03 02:35:22;;;;;;;18.77;16.07;;;-0.40;99.90;;;;;;5051219;28;20652;-67
2022/03/03 02:37:48;;;;;;;19.33;15.00;;;-0.50;99.90;;;;;;5050196;28;20186;-67
2022/03/03 02:40:20;;;;;;;16.73;14.50;;;-0.40;99.90;;;;;;5058421;28;20226;-67
2022/03/03 02:42:51;;;;;;;17.93;15.53;;;-0.30;99.90;;;;;;5069582;28;20282;-67
2022/03/03 02:45:17;;;;;;;20.23;15.47;;;-0.20;99.90;;;;;;5051797;28;20175;-67
2022/03/03 02:47:45;;;;;;;18.67;15.90;;;-0.30;99.90;;;;;;5032922;28;20183;-67
2022/03/03 02:50:12;;;;;;;17.80;15.77;;;-0.30;99.90;;;;;;5050139;28;20209;-66
2022/03/03 02:52:38;;;;;;;16.53;14.83;;;-0.40;99.90;;;;;;5050460;28;20190;-67
2022/03/03 02:55:17;;;;;;;18.17;14.93;;;-0.40;99.90;;;;;;5049902;28;20667;-67
2022/03/03 02:57:55;;;;;;;18.53;15.77;;;-0.40;99.90;;;;;;5051080;28;20183;-66
2022/03/03 03:00:28;;;;;;;17.43;15.30;;;-0.40;99.90;;;;;;5050104;28;20198;-66
2022/03/03 03:02:54;;;;;;;18.70;15.60;;;-0.40;99.90;;;;;;5049178;28;20671;-66
2022/03/03 03:05:20;;;;;;;21.93;16.27;;;-0.60;99.90;;;;;;5051142;28;20175;-66
2022/03/03 03:07:46;;;;;;;20.00;17.03;;;-0.60;99.90;;;;;;5049646;28;20183;-66
2022/03/03 03:10:11;;;;;;;18.50;15.83;;;-0.70;99.90;;;;;;5050972;28;20197;-66
2022/03/03 03:12:37;;;;;;;20.03;16.33;;;-0.70;99.90;;;;;;5050512;28;20221;-66
2022/03/03 03:15:04;;;;;;;18.17;15.60;;;-0.80;99.90;;;;;;5050992;28;20175;-66
2022/03/03 03:17:29;;;;;;;20.93;16.27;;;-0.90;99.90;;;;;;5049523;28;20548;-66
2022/03/03 03:19:55;;;;;;;21.63;16.70;;;-0.90;99.90;;;;;;5050983;28;20205;-66
2022/03/03 03:22:20;;;;;;;20.87;16.30;;;-0.80;99.90;;;;;;5050551;28;20211;-66
2022/03/03 03:24:46;;;;;;;23.57;16.47;;;-0.80;99.90;;;;;;5051041;28;20333;-66
2022/03/03 03:27:12;;;;;;;21.83;15.60;;;-0.80;99.90;;;;;;5049488;28;20178;-66
2022/03/03 03:29:37;;;;;;;19.70;15.37;;;-0.80;99.90;;;;;;5054221;28;20252;-66
2022/03/03 03:32:03;;;;;;;19.03;16.37;;;-0.70;99.90;;;;;;5053563;28;20189;-66
2022/03/03 03:34:29;;;;;;;16.27;14.63;;;-0.70;99.90;;;;;;5052896;28;20179;-66
2022/03/03 03:36:54;;;;;;;23.80;16.37;;;-0.80;99.90;;;;;;5053814;28;20186;-66
2022/03/03 03:39:20;;;;;;;21.10;15.97;;;-0.80;99.90;;;;;;5052943;28;20259;-66
2022/03/03 03:41:46;;;;;;;19.50;16.37;;;-0.80;99.90;;;;;;5054147;28;20234;-66
2022/03/03 03:44:11;;;;;;;20.87;16.03;;;-0.80;99.90;;;;;;5053082;28;20175;-66
2022/03/03 03:46:37;;;;;;;19.60;16.23;;;-0.80;99.90;;;;;;5054371;28;20175;-66
2022/03/03 03:49:03;;;;;;;19.57;15.40;;;-0.80;99.90;;;;;;5053884;28;20266;-66
2022/03/03 03:51:29;;;;;;;18.73;16.27;;;-0.80;99.90;;;;;;5054267;28;20294;-66
2022/03/03 03:53:55;;;;;;;20.40;15.23;;;-0.70;99.90;;;;;;5053433;28;20261;-66
2022/03/03 03:56:20;;;;;;;19.40;15.37;;;-0.60;99.90;;;;;;5052901;28;20273;-66
2022/03/03 03:58:46;;;;;;;21.73;15.83;;;-0.60;99.90;;;;;;5052272;28;20324;-66
2022/03/03 04:01:11;;;;;;;21.30;16.33;;;-0.50;99.90;;;;;;5052519;28;20206;-66
2022/03/03 04:03:37;;;;;;;18.73;15.60;;;-0.50;99.90;;;;;;5052020;28;20190;-66
2022/03/03 04:06:05;;;;;;;21.33;17.80;;;-0.40;99.90;;;;;;5053251;28;20193;-66
2022/03/03 04:08:30;;;;;;;26.93;18.87;;;-0.40;99.90;;;;;;5052647;28;20186;-66
2022/03/03 04:10:56;;;;;;;20.43;16.97;;;-0.50;99.90;;;;;;5053173;28;20203;-66
2022/03/03 04:13:21;;;;;;;21.27;17.40;;;-0.50;99.90;;;;;;5052796;28;20206;-66
2022/03/03 04:15:47;;;;;;;19.00;16.37;;;-0.40;99.90;;;;;;5053126;28;20175;-66
2022/03/03 04:18:13;;;;;;;17.10;14.77;;;-0.40;99.90;;;;;;5053622;28;20237;-66
2022/03/03 04:20:39;;;;;;;20.03;15.40;;;-0.40;99.90;;;;;;5051642;28;20213;-66
2022/03/03 04:23:05;;;;;;;21.53;16.40;;;-0.40;99.90;;;;;;5053049;28;20206;-66
2022/03/03 04:25:31;;;;;;;16.23;14.53;;;-0.50;99.90;;;;;;5053123;28;20207;-66
2022/03/03 04:27:57;;;;;;;21.27;15.73;;;-0.50;99.90;;;;;;5053102;28;20696;-66
2022/03/03 04:30:22;;;;;;;19.33;14.10;;;-0.50;99.90;;;;;;5052729;28;20286;-66
2022/03/03 04:32:48;;;;;;;18.00;14.37;;;-0.50;99.90;;;;;;5049999;28;20190;-66
2022/03/03 04:35:14;;;;;;;17.63;15.57;;;-0.50;99.90;;;;;;5052822;28;20187;-66
2022/03/03 04:37:40;;;;;;;19.30;15.07;;;-0.50;99.90;;;;;;5052976;28;20178;-66
2022/03/03 04:40:06;;;;;;;17.97;15.00;;;-0.50;99.90;;;;;;5051983;28;20221;-66
2022/03/03 04:42:32;;;;;;;18.50;16.07;;;-0.50;99.90;;;;;;5053025;28;20229;-66
2022/03/03 04:44:58;;;;;;;21.63;15.23;;;-0.60;99.90;;;;;;5052753;28;20182;-67
2022/03/03 04:47:24;;;;;;;21.00;16.20;;;-0.60;99.90;;;;;;5052522;28;20174;-66
2022/03/03 04:49:50;;;;;;;17.37;15.53;;;-0.60;99.90;;;;;;5052528;28;20202;-66
2022/03/03 04:52:15;;;;;;;20.10;15.07;;;-0.70;99.90;;;;;;5053037;28;20171;-66
2022/03/03 04:54:42;;;;;;;17.97;15.63;;;-0.70;99.90;;;;;;5052285;28;20194;-66
2022/03/03 04:57:08;;;;;;;16.63;14.73;;;-0.70;99.90;;;;;;5052445;28;20178;-66
2022/03/03 04:59:33;;;;;;;17.40;15.20;;;-0.70;99.90;;;;;;5050923;28;20289;-66
2022/03/03 05:01:59;;;;;;;22.93;15.80;;;-0.80;99.90;;;;;;5049312;28;20289;-66
2022/03/03 05:04:25;;;;;;;16.17;14.50;;;-0.90;99.90;;;;;;5052845;28;20588;-66
2022/03/03 05:06:51;;;;;;;18.00;15.60;;;-0.90;99.90;;;;;;5052819;28;20174;-67
2022/03/03 05:09:16;;;;;;;20.43;16.00;;;-1.00;99.90;;;;;;5051461;28;20286;-66
2022/03/03 05:11:43;;;;;;;19.80;15.40;;;-1.00;99.90;;;;;;5052592;28;20182;-66
2022/03/03 05:14:08;;;;;;;20.57;16.13;;;-0.90;99.90;;;;;;5051417;28;20717;-66
2022/03/03 05:16:34;;;;;;;17.13;15.33;;;-0.90;99.90;;;;;;5052514;28;20258;-66
2022/03/03 05:19:00;;;;;;;20.60;16.10;;;-0.90;99.90;;;;;;5052040;28;20240;-66
2022/03/03 05:21:26;;;;;;;19.73;15.63;;;-0.90;99.90;;;;;;5052399;28;20199;-67
2022/03/03 05:23:51;;;;;;;22.93;16.70;;;-0.90;99.90;;;;;;5050675;28;20171;-66
2022/03/03 05:26:18;;;;;;;18.57;15.17;;;-0.90;99.90;;;;;;5051284;28;20175;-66
2022/03/03 05:28:44;;;;;;;17.00;14.17;;;-0.90;99.90;;;;;;5051708;28;20193;-66
2022/03/03 05:31:10;;;;;;;20.87;16.30;;;-0.80;99.90;;;;;;5050712;28;20265;-67
2022/03/03 05:33:36;;;;;;;18.43;15.83;;;-0.80;99.90;;;;;;5051830;28;20175;-66
2022/03/03 05:36:05;;;;;;;17.87;15.83;;;-0.70;99.90;;;;;;5051011;28;20226;-66
2022/03/03 05:38:32;;;;;;;16.90;15.10;;;-0.70;99.90;;;;;;5052140;28;20171;-65
2022/03/03 05:40:59;;;;;;;17.73;15.07;;;-0.70;99.90;;;;;;5052017;28;20217;-65
2022/03/03 05:43:25;;;;;;;20.60;15.07;;;-0.70;99.90;;;;;;5051133;28;20163;-66
2022/03/03 05:45:51;;;;;;;18.37;15.60;;;-0.70;99.90;;;;;;5050619;28;20250;-66
2022/03/03 05:48:19;;;;;;;18.60;14.90;;;-0.70;99.90;;;;;;5050135;28;20178;-66
2022/03/03 05:50:45;;;;;;;16.80;14.67;;;-0.70;99.90;;;;;;5051024;28;20198;-65
2022/03/03 05:53:11;;;;;;;18.30;16.13;;;-0.70;99.90;;;;;;5051535;28;20183;-66
2022/03/03 05:55:56;;;;;;;17.83;15.93;;;-0.70;99.90;;;;;;5051550;28;20209;-65
2022/03/03 05:58:26;;;;;;;15.90;14.20;;;-0.70;99.90;;;;;;5051700;28;20174;-66
2022/03/03 06:00:57;;;;;;;18.30;14.37;;;-0.70;99.90;;;;;;5051457;28;20201;-66
2022/03/03 06:03:24;;;;;;;19.57;16.47;;;-0.70;99.90;;;;;;5050867;28;20648;-66
2022/03/03 06:05:52;;;;;;;17.97;15.77;;;-0.70;99.90;;;;;;5051935;28;20529;-66
2022/03/03 06:08:23;;;;;;;20.27;14.93;;;-0.70;99.90;;;;;;5050685;28;20193;-66
2022/03/03 06:10:53;;;;;;;17.47;15.37;;;-0.80;99.90;;;;;;5051420;28;20533;-66
2022/03/03 06:13:30;;;;;;;18.63;13.70;;;-0.80;99.90;;;;;;5051671;28;20951;-66
2022/03/03 06:15:55;;;;;;;20.47;15.03;;;-0.80;99.90;;;;;;5030986;28;20203;-66
2022/03/03 06:18:40;;;;;;;19.60;16.03;;;-0.80;99.90;;;;;;5031695;28;20586;-67
2022/03/03 06:21:07;;;;;;;21.67;16.63;;;-0.80;99.90;;;;;;5031607;28;20230;-66
2022/03/03 06:23:34;;;;;;;20.13;16.03;;;-0.80;99.90;;;;;;5030390;28;20176;-67
2022/03/03 06:26:04;;;;;;;18.43;15.57;;;-0.80;99.90;;;;;;5051293;28;20175;-65
2022/03/03 06:28:31;;;;;;;19.90;14.23;;;-0.70;99.90;;;;;;5051287;28;20177;-66
2022/03/03 06:30:57;;;;;;;18.47;16.00;;;-0.70;99.90;;;;;;5050932;28;20191;-67
2022/03/03 06:33:23;;;;;;;17.67;15.67;;;-0.80;99.90;;;;;;5050687;28;20175;-66
2022/03/03 06:35:48;;;;;;;20.47;16.60;;;-0.70;99.90;;;;;;5051250;28;20254;-66
2022/03/03 06:38:14;;;;;;;18.73;15.70;;;-0.70;99.90;;;;;;5050053;28;20597;-67
2022/03/03 06:40:40;;;;;;;20.43;16.30;;;-0.70;99.90;;;;;;5051117;28;20206;-66
2022/03/03 06:43:06;;;;;;;20.93;16.23;;;-0.70;99.90;;;;;;5049816;28;20240;-66
2022/03/03 06:45:32;;;;;;;16.83;15.13;;;-0.70;99.90;;;;;;5050491;28;20210;-66
2022/03/03 06:48:01;;;;;;;16.83;15.07;;;-0.70;99.90;;;;;;5050980;28;20575;-66
2022/03/03 06:50:27;;;;;;;19.13;15.17;;;-0.70;99.90;;;;;;5050549;28;20195;-66
2022/03/03 06:52:54;;;;;;;20.33;16.17;;;-0.60;99.90;;;;;;5049360;28;20191;-67
2022/03/03 06:55:24;;;;;;;19.80;15.93;;;-0.70;99.90;;;;;;5050214;28;20186;-66
2022/03/03 06:57:54;;;;;;;18.27;15.37;;;-0.60;99.90;;;;;;5047946;28;20178;-65
2022/03/03 07:00:21;;;;;;;17.63;14.47;;;-0.60;99.90;;;;;;5050710;28;20216;-66
2022/03/03 07:02:48;;;;;;;16.87;14.77;;;-0.50;99.90;;;;;;5049711;28;20198;-66
2022/03/03 07:05:15;;;;;;;18.00;15.70;;;-0.50;99.90;;;;;;5053886;28;20167;-65
2022/03/03 07:07:45;;;;;;;22.40;16.83;;;-0.50;99.90;;;;;;5054599;28;20178;-66
2022/03/03 07:10:12;;;;;;;22.30;16.50;;;-0.40;99.90;;;;;;5053755;28;20609;-67
2022/03/03 07:12:39;;;;;;;16.63;14.87;;;-0.40;99.90;;;;;;5053881;28;20187;-66
2022/03/03 07:15:05;;;;;;;18.80;15.97;;;-0.30;99.90;;;;;;5054287;28;20175;-67
2022/03/03 07:17:49;;;;;;;22.97;15.40;;;-0.20;99.90;;;;;;5053132;28;20202;-66
2022/03/03 07:20:24;;;;;;;25.80;15.13;;;-0.10;99.90;;;;;;5053126;28;20228;-65
2022/03/03 07:23:00;;;;;;;20.83;15.00;;;0.10;99.90;;;;;;5054171;28;20492;-66
2022/03/03 07:25:39;;;;;;;17.87;15.00;;;0.50;99.90;;;;;;5053708;28;20171;-66
2022/03/03 07:28:10;;;;;;;20.77;15.57;;;0.80;99.90;;;;;;5052332;28;20190;-65
2022/03/03 07:30:41;;;;;;;19.70;14.33;;;1.20;99.90;;;;;;5054158;28;20209;-66
2022/03/03 07:33:10;;;;;;;18.83;14.87;;;1.60;99.90;;;;;;5053898;28;20199;-66
2022/03/03 07:35:40;;;;;;;17.47;15.67;;;2.00;99.90;;;;;;5063971;28;20219;-67
2022/03/03 07:38:19;;;;;;;17.27;14.60;;;2.50;99.90;;;;;;5070157;28;20209;-66
2022/03/03 07:40:46;;;;;;;16.57;13.67;;;2.90;99.90;;;;;;5063676;28;20257;-65
2022/03/03 07:43:14;;;;;;;14.87;13.33;;;3.40;99.90;;;;;;5053791;28;20207;-66
2022/03/03 07:45:40;;;;;;;13.70;12.30;;;3.80;99.90;;;;;;5053691;28;20175;-66
2022/03/03 07:48:06;;;;;;;13.60;11.90;;;4.30;99.90;;;;;;5052431;28;20228;-66
2022/03/03 07:50:39;;;;;;;15.83;13.00;;;4.80;99.90;;;;;;5052845;28;20281;-66
2022/03/03 07:53:06;;;;;;;16.53;12.50;;;5.30;99.90;;;;;;5053682;28;20179;-66
2022/03/03 07:55:34;;;;;;;17.00;13.60;;;5.60;99.90;;;;;;5052720;28;20660;-66
2022/03/03 07:58:02;;;;;;;15.67;12.70;;;6.20;99.90;;;;;;5053501;28;20179;-65
2022/03/03 08:00:33;;;;;;;14.60;13.20;;;6.60;99.90;;;;;;5053547;28;20191;-66
2022/03/03 08:03:00;;;;;;;14.30;12.93;;;7.10;99.90;;;;;;5051715;28;20895;-67
2022/03/03 08:05:30;;;;;;;15.67;13.83;;;7.40;99.90;;;;;;5053538;28;20178;-66
2022/03/03 08:08:00;;;;;;;14.40;11.93;;;7.70;99.90;;;;;;5053245;28;20175;-66
2022/03/03 08:10:27;;;;;;;14.77;13.13;;;7.80;99.90;;;;;;5052012;28;20193;-67
2022/03/03 08:12:56;;;;;;;15.17;12.77;;;7.90;99.90;;;;;;5053291;28;20179;-66
2022/03/03 08:15:22;;;;;;;14.00;11.70;;;8.20;99.90;;;;;;5052083;28;20228;-65
2022/03/03 08:17:53;;;;;;;14.70;12.30;;;8.50;99.90;;;;;;5053103;28;20270;-66
2022/03/03 08:20:20;;;;;;;15.23;12.37;;;8.60;99.90;;;;;;5052850;28;20311;-66
2022/03/03 08:22:46;;;;;;;15.07;12.80;;;8.80;99.90;;;;;;5051831;28;20203;-67
2022/03/03 08:25:12;;;;;;;19.53;13.57;;;9.00;99.90;;;;;;5052216;28;20640;-66
2022/03/03 08:27:39;;;;;;;15.50;13.23;;;9.10;99.90;;;;;;5052862;28;20214;-65
2022/03/03 08:30:07;;;;;;;14.67;12.77;;;9.40;99.90;;;;;;5052377;28;20605;-67
2022/03/03 08:33:01;;;;;;;14.57;12.43;;;9.50;99.90;;;;;;5051610;28;20178;-67
2022/03/03 08:35:36;;;;;;;13.53;11.77;;;9.80;99.90;;;;;;5053039;28;20507;-66
2022/03/03 08:38:23;;;;;;;15.80;13.10;;;10.10;99.60;;;;;;5051935;28;20651;-67
2022/03/03 08:40:51;;;;;;;16.10;13.07;;;10.30;99.90;;;;;;5051752;28;20221;-67
2022/03/03 08:43:22;;;;;;;14.10;11.63;;;10.40;99.50;;;;;;5052879;28;20226;-66
2022/03/03 08:45:51;;;;;;;14.17;12.63;;;10.30;97.80;;;;;;5052325;28;20349;-67
2022/03/03 08:48:22;;;;;;;14.37;12.87;;;10.20;99.50;;;;;;5051321;28;20517;-67
2022/03/03 08:50:49;;;;;;;16.37;13.00;;;10.70;99.90;;;;;;5051250;28;20672;-65
2022/03/03 08:53:15;;;;;;;13.80;12.27;;;11.20;99.70;;;;;;5051153;28;20205;-67
2022/03/03 08:55:41;;;;;;;12.83;11.53;;;11.60;98.40;;;;;;5051481;28;20636;-66
2022/03/03 08:58:07;;;;;;;16.63;12.43;;;12.10;98.10;;;;;;5052405;28;20171;-66
2022/03/03 09:00:33;;;;;;;14.17;12.70;;;12.40;97.40;;;;;;5051966;28;20199;-67
2022/03/03 09:02:59;;;;;;;13.70;12.20;;;12.70;96.50;;;;;;5050622;28;20206;-67
2022/03/03 09:05:25;;;;;;;13.53;11.30;;;12.90;95.80;;;;;;5052636;28;20258;-66
2022/03/03 09:07:51;;;;;;;14.20;11.90;;;13.00;94.50;;;;;;5052119;28;20202;-66
2022/03/03 09:10:17;;;;;;;13.67;12.20;;;12.90;92.90;;;;;;5052079;28;20233;-67
2022/03/03 09:12:43;;;;;;;13.23;11.83;;;12.90;92.60;;;;;;5051635;28;20229;-67
2022/03/03 09:15:10;;;;;;;13.17;11.70;;;12.80;91.80;;;;;;5052299;28;20199;-66
2022/03/03 09:17:37;;;;;;;13.03;11.73;;;12.60;92.40;;;;;;5052002;28;20607;-67
2022/03/03 09:20:06;;;;;;;13.17;11.80;;;12.20;91.40;;;;;;5052129;28;20574;-66
2022/03/03 09:22:32;;;;;;;13.00;11.60;;;12.30;92.80;;;;;;5051616;28;20203;-66
2022/03/03 09:24:58;;;;;;;13.13;11.83;;;12.20;90.50;;;;;;5050571;28;20170;-66
2022/03/03 09:27:24;;;;;;;17.70;11.97;;;12.20;90.40;;;;;;5050095;28;20182;-66
2022/03/03 09:29:50;;;;;;;13.40;11.20;;;12.30;88.80;;;;;;5051992;28;20665;-67
2022/03/03 09:32:16;;;;;;;13.07;11.27;;;12.20;88.20;;;;;;5050155;28;20175;-67
2022/03/03 09:34:45;;;;;;;14.37;12.70;;;12.10;87.50;;;;;;5051606;28;20178;-66
2022/03/03 09:37:13;;;;;;;13.90;12.13;;;12.10;87.30;;;;;;5050556;28;20187;-67
2022/03/03 09:39:39;;;;;;;14.33;12.97;;;12.30;87.20;;;;;;5051507;28;20207;-66
2022/03/03 09:42:05;;;;;;;13.33;12.10;;;12.60;85.30;;;;;;5051205;28;20719;-67
2022/03/03 09:44:31;;;;;;;14.07;12.67;;;12.70;87.10;;;;;;5051566;28;20290;-67
2022/03/03 09:46:56;;;;;;;14.70;12.50;;;12.80;81.70;;;;;;5051283;28;20170;-67
2022/03/03 09:49:22;;;;;;;14.83;12.17;;;12.80;83.10;;;;;;5051145;28;20272;-67
2022/03/03 09:51:50;;;;;;;13.07;11.67;;;12.90;82.80;;;;;;5050031;28;20224;-67
2022/03/03 09:54:16;;;;;;;13.90;12.00;;;13.00;83.70;;;;;;5051510;28;20575;-67
2022/03/03 09:56:42;;;;;;;14.00;12.67;;;13.20;84.00;;;;;;5049855;28;20175;-66
2022/03/03 09:59:08;;;;;;;14.97;12.67;;;13.20;80.90;;;;;;5051400;28;20206;-67
2022/03/03 10:01:34;;;;;;;14.77;12.87;;;13.10;82.20;;;;;;5049860;28;20206;-67
2022/03/03 10:04:20;;;;;;;14.30;12.77;;;12.80;81.70;;;;;;5051230;28;20590;-67
2022/03/03 10:06:47;;;;;;;17.23;12.20;;;12.80;82.70;;;;;;5051228;28;20171;-67
2022/03/03 10:09:13;;;;;;;13.50;11.80;;;12.80;81.90;;;;;;5049993;28;20739;-66
2022/03/03 10:11:57;;;;;;;14.03;11.67;;;12.60;79.30;;;;;;5050288;28;20257;-66
2022/03/03 10:14:28;;;;;;;13.03;11.63;;;12.30;81.10;;;;;;5030899;28;20229;-67
2022/03/03 10:16:54;;;;;;;15.17;12.83;;;12.30;83.50;;;;;;5030644;28;20229;-66
2022/03/03 10:19:20;;;;;;;15.03;13.43;;;12.30;81.80;;;;;;5051142;28;20198;-67
2022/03/03 10:21:45;;;;;;;14.10;12.57;;;12.30;80.00;;;;;;5051364;28;20273;-66
2022/03/03 10:24:21;;;;;;;14.40;12.77;;;12.40;80.80;;;;;;5049945;28;20574;-67
2022/03/03 10:27:00;;;;;;;14.30;12.40;;;12.60;81.30;;;;;;5050801;28;20216;-66
2022/03/03 10:29:27;;;;;;;16.93;11.97;;;13.10;80.50;;;;;;5031117;28;20560;-66
2022/03/03 10:31:55;;;;;;;14.87;11.77;;;13.30;77.40;;;;;;5032000;28;20171;-66
2022/03/03 10:34:28;;;;;;;12.60;11.43;;;13.50;81.60;;;;;;5049127;28;20705;-67
2022/03/03 10:37:03;;;;;;;12.93;11.13;;;13.80;80.30;;;;;;5049343;28;20214;-67
2022/03/03 10:39:42;;;;;;;12.40;11.10;;;14.00;80.40;;;;;;5053280;28;20214;-67
2022/03/03 10:42:27;;;;;;;13.90;12.50;;;14.40;78.10;;;;;;5053654;28;20280;-66
2022/03/03 10:45:21;;;;;;;13.10;11.77;;;14.60;77.00;;;;;;5054537;28;20914;-67
2022/03/03 10:48:00;;;;;;;13.70;12.20;;;14.80;77.40;;;;;;5050411;28;20182;-67
2022/03/03 10:50:43;;;;;;;13.60;12.20;;;14.90;73.60;;;;;;5054886;28;20221;-66
2022/03/03 10:53:11;;;;;;;19.03;12.17;;;15.10;75.80;;;;;;5054223;28;20248;-67
2022/03/03 10:55:37;;;;;;;12.93;11.67;;;15.40;73.80;;;;;;5054704;28;20285;-67
2022/03/03 10:58:03;;;;;;;15.37;12.37;;;15.50;73.50;;;;;;5053086;28;20186;-66
2022/03/03 11:00:30;;;;;;;14.07;12.60;;;15.60;72.30;;;;;;5054857;28;20572;-67
2022/03/03 11:03:04;;;;;;;13.87;12.37;;;15.80;72.60;;;;;;5054341;28;20233;-66
2022/03/03 11:05:30;;;;;;;13.20;11.90;;;16.10;72.90;;;;;;5054709;28;20183;-67
2022/03/03 11:07:57;;;;;;;14.00;12.20;;;16.40;70.40;;;;;;5054424;28;20178;-66
2022/03/03 11:10:29;;;;;;;12.87;11.60;;;16.50;68.70;;;;;;5054528;28;20206;-67
2022/03/03 11:12:55;;;;;;;14.67;12.27;;;16.60;69.10;;;;;;5052918;28;20197;-66
2022/03/03 11:15:24;;;;;;;15.93;12.40;;;16.50;69.30;;;;;;5055010;28;20170;-67
2022/03/03 11:17:52;;;;;;;13.20;11.83;;;16.30;69.00;;;;;;5054350;28;20718;-66
2022/03/03 11:20:19;;;;;;;13.40;11.77;;;16.30;66.40;;;;;;5052870;28;20238;-67
2022/03/03 11:22:46;;;;;;;13.97;12.00;;;16.10;65.70;;;;;;5052608;28;20638;-66
2022/03/03 11:25:18;;;;;;;13.38;11.85;;;16.10;67.20;;;;;;5053111;28;20270;-66
2022/03/03 11:27:44;;;;;;;13.47;12.13;;;16.50;68.20;;;;;;5054220;28;20207;-66
2022/03/03 11:30:17;;;;;;;15.20;12.60;;;16.60;65.00;;;;;;5054409;28;20683;-66
2022/03/03 11:32:43;;;;;;;12.37;11.07;;;16.50;64.80;;;;;;5054245;28;20183;-66
2022/03/03 11:35:12;;;;;;;13.17;11.97;;;16.40;66.40;;;;;;5054345;28;20715;-67
2022/03/03 11:37:46;;;;;;;15.00;12.00;;;16.20;63.10;;;;;;5054164;28;20221;-67
2022/03/03 11:40:16;;;;;;;15.07;12.80;;;16.00;60.30;;;;;;5054331;28;20209;-67
2022/03/03 11:42:55;;;;;;;13.60;12.20;;;15.60;65.50;;;;;;5053738;28;20260;-67
2022/03/03 11:45:33;;;;;;;15.93;12.07;;;15.60;61.90;;;;;;5053961;28;20171;-67
2022/03/03 11:48:15;;;;;;;17.10;12.57;;;15.60;68.20;;;;;;5052388;28;20187;-66
2022/03/03 11:50:41;;;;;;;14.30;12.87;;;15.70;64.80;;;;;;5053637;28;20199;-67
2022/03/03 11:53:10;;;;;;;13.77;12.13;;;15.70;64.50;;;;;;5052251;28;20328;-66
2022/03/03 11:55:38;;;;;;;16.23;12.33;;;15.90;60.10;;;;;;5051989;28;20183;-67
2022/03/03 11:58:13;;;;;;;12.87;11.57;;;15.80;60.80;;;;;;5053801;28;20648;-67
2022/03/03 12:00:52;;;;;;;12.80;11.50;;;15.90;59.80;;;;;;5053237;28;20339;-67
2022/03/03 12:03:17;;;;;;;13.03;11.83;;;16.20;59.50;;;;;;5053391;28;20214;-67
2022/03/03 12:06:08;;;;;;;12.37;11.17;;;16.50;59.20;;;;;;5053716;28;20201;-67
2022/03/03 12:08:42;;;;;;;12.83;11.53;;;16.40;58.90;;;;;;5060057;28;20179;-67
2022/03/03 12:11:15;;;;;;;13.13;11.70;;;16.60;59.40;;;;;;5071130;28;20175;-67
2022/03/03 12:13:51;;;;;;;12.77;11.47;;;16.80;58.10;;;;;;5070781;28;20236;-66
2022/03/03 12:16:34;;;;;;;15.67;11.50;;;16.90;57.80;;;;;;5054324;28;20178;-66
2022/03/03 12:19:06;;;;;;;12.93;11.50;;;17.00;58.80;;;;;;5053029;28;20252;-66
2022/03/03 12:21:37;;;;;;;14.73;13.17;;;17.20;57.80;;;;;;5053429;28;20202;-67
2022/03/03 12:24:17;;;;;;;12.23;11.07;;;17.00;57.50;;;;;;5052909;28;20644;-67
2022/03/03 12:29:51;;;;;;;13.00;10.90;;;17.10;57.80;;;;;;5053618;28;20202;-66
2022/03/03 12:32:30;;;;;;;12.53;11.23;;;17.10;56.10;;;;;;5051782;28;20194;-67
2022/03/03 12:35:03;;;;;;;14.03;11.73;;;17.00;56.50;;;;;;5053124;28;20181;-67
2022/03/03 12:37:30;;;;;;;12.83;11.60;;;16.70;53.60;;;;;;5053273;28;20252;-66
2022/03/03 12:40:00;;;;;;;12.93;11.50;;;16.80;57.10;;;;;;5053077;28;20209;-66
2022/03/03 12:42:29;;;;;;;12.37;11.07;;;17.00;55.70;;;;;;5051299;28;20297;-67
2022/03/03 12:45:07;;;;;;;12.60;11.30;;;17.00;52.40;;;;;;5052919;28;20182;-67
2022/03/03 12:47:42;;;;;;;13.30;10.90;;;16.80;53.00;;;;;;5051266;28;20186;-66